WetterOnline ( http://www.wetteronline.de )

Wetter aktuell Geseke

Aktuelles Wetter: Bad Lippspringe (158m)

6-stündlich | Neueste Meldungen
Ortszeit Temperatur Wetter
Di, 16.10. 8:00 9.9° C bedeckt
Di, 16.10. 2:00 9.9° C leicht bewölkt
Mo, 15.10. 20:00 14.9° C wolkenlos
Mo, 15.10. 14:00 25.4° C wolkenlos
Mo, 15.10. 8:00 11.7° C wolkig
Mo, 15.10. 2:00 17.7° C wolkenlos
So, 14.10. 20:00 18.3° C wolkenlos
So, 14.10. 14:00 24.5° C wolkenlos
Ortszeit Temperatur Wetter
Di, 16.10. 13:30 19.2° C wolkig
Di, 16.10. 13:10 19.0° C bewölkt
Di, 16.10. 13:00 18.5° C bewölkt
Di, 16.10. 12:50 18.5° C bewölkt
Di, 16.10. 12:40 18.4° C wolkig
Di, 16.10. 12:30 17.9° C bewölkt
Di, 16.10. 12:00 17.5° C bewölkt
Di, 16.10. 11:30 17.4° C leichter Regen
Di, 16.10. 11:00 17.8° C bedeckt
Di, 16.10. 10:30 17.6° C bewölkt
Ortszeit Relative Feuchte Sichtweite
Di, 16.10. 8:00 89% 16 km
Di, 16.10. 2:00 89% 19 km
Mo, 15.10. 20:00 73% 30 km
Mo, 15.10. 14:00 34% 35 km
Mo, 15.10. 8:00 80% 21 km
Mo, 15.10. 2:00 59% 30 km
So, 14.10. 20:00 58% 35 km
So, 14.10. 14:00 41% 25 km
Ortszeit Relative Feuchte Sichtweite
Di, 16.10. 13:30 65% 23 km
Di, 16.10. 13:10 66% -
Di, 16.10. 13:00 64% 21 km
Di, 16.10. 12:50 64% -
Di, 16.10. 12:40 64% -
Di, 16.10. 12:30 65% 20 km
Di, 16.10. 12:00 66% 19 km
Di, 16.10. 11:30 65% 9 km
Di, 16.10. 11:00 55% 21 km
Di, 16.10. 10:30 62% 30 km
Ortszeit Niederschlagsmenge Niederschlagsart
Di, 16.10. 8:00 0.0 l/m2 in 12 Std. -
Di, 16.10. 2:00 0.0 l/m2 in 6 Std. -
Mo, 15.10. 20:00 0.0 l/m2 in 12 Std. -
Mo, 15.10. 14:00 0.0 l/m2 in 6 Std. -
Mo, 15.10. 8:00 0.0 l/m2 in 12 Std. -
Mo, 15.10. 2:00 0.0 l/m2 in 6 Std. -
So, 14.10. 20:00 0.0 l/m2 in 12 Std. -
So, 14.10. 14:00 0.0 l/m2 in 6 Std. -
Ortszeit Niederschlagsmenge Niederschlagsart
Di, 16.10. 13:30 0.0 l/m2 in 1 Std. -
Di, 16.10. 13:10 keine Meldung -
Di, 16.10. 13:00 0.0 l/m2 in 1 Std. -
Di, 16.10. 12:50 keine Meldung -
Di, 16.10. 12:40 keine Meldung -
Di, 16.10. 12:30 0.0 l/m2 in 1 Std. -
Di, 16.10. 12:00 0.1 l/m2 in 1 Std. Regen
Di, 16.10. 11:30 0.1 l/m2 in 1 Std. -
Di, 16.10. 11:00 0.0 l/m2 in 1 Std. -
Di, 16.10. 10:30 0.0 l/m2 in 1 Std. -
Ortszeit Stärke Spitze Richtung
km/h Bft. km/h Grad Sektor
Di, 16.10. 8:00 4 1 7 40° NO
Di, 16.10. 2:00 2 1 13 40° NO
Mo, 15.10. 20:00 4 1 18 80° O
Mo, 15.10. 14:00 7 2 18 210° SW
Mo, 15.10. 8:00 4 1 18 50° NO
Mo, 15.10. 2:00 6 1 33 190° S
So, 14.10. 20:00 4 1 32 120° SO
So, 14.10. 14:00 14 3 29 140° SO
Ortszeit Stärke Spitze Richtung
km/h Bft. km/h Grad Sektor
Di, 16.10. 13:30 4 1 7 230° SW
Di, 16.10. 13:10 4 1 - 230° SW
Di, 16.10. 13:00 7 2 11 230° SW
Di, 16.10. 12:50 7 2 - 230° SW
Di, 16.10. 12:40 7 2 - 230° SW
Di, 16.10. 12:30 6 1 7 210° SW
Di, 16.10. 12:00 4 1 7 160° S
Di, 16.10. 11:30 4 1 7 290° W
Di, 16.10. 11:00 4 1 4 250° W
Di, 16.10. 10:30 2 1 4 190° S
Ortszeit Untergrenze Bedeckung Gattung
total tief tief mittel hoch
Di, 16.10. 8:00 4200 m 8/8 8/8 - - -
Di, 16.10. 2:00 8400 m 6/8 0/8 - - -
Mo, 15.10. 20:00 - 0/8 0/8 - - -
Mo, 15.10. 14:00 - 0/8 0/8 - - -
Mo, 15.10. 8:00 3000 m 6/8 6/8 - - -
Mo, 15.10. 2:00 - 0/8 0/8 - - -
So, 14.10. 20:00 - 0/8 0/8 - - -
So, 14.10. 14:00 - 0/8 0/8 - - -
Ortszeit Bedeckungsgrad in Achtel und Wolkenuntergrenze
Di, 16.10. 13:30 1(2100m) 8(3000m) 8(3600m)
Di, 16.10. 13:10 5(2700m) 8(3300m) 8(4200m)
Di, 16.10. 13:00 4(2700m) 8(3300m) 8(4200m)
Di, 16.10. 12:50 4(2700m) 8(3300m) 8(4200m)
Di, 16.10. 12:40 2(2700m) 8(3300m) 8(4200m)
Di, 16.10. 12:30 6(2400m) 8(3000m)
Di, 16.10. 12:00 6(2400m) 7(3000m)
Di, 16.10. 11:30 1(1800m) 8(3000m) 8(3900m)
Di, 16.10. 11:00 8(2700m) 8(3300m) 8(4200m)
Di, 16.10. 10:30 7(2400m) 8(4200m) 8(4500m)
Ortszeit Luftdruck NN (hPa) Tendenz (hPa in 3 Std.)
Di, 16.10. 8:00 1019 + 0,7
Di, 16.10. 2:00 1017 + 0,6
Mo, 15.10. 20:00 1015 + 1,4
Mo, 15.10. 14:00 1013 - 0,3
Mo, 15.10. 8:00 1013 + 1,1
Mo, 15.10. 2:00 1012 + 0,3
So, 14.10. 20:00 1011 + 0,3
So, 14.10. 14:00 1011 - 1,2
Ortszeit Luftdruck NN (hPa) Tendenz (hPa in 3 Std.)
Di, 16.10. 13:30 1019 0,0
Di, 16.10. 13:10 1019 keine Meldung
Di, 16.10. 13:00 1019 + 0,3
Di, 16.10. 12:50 1019 keine Meldung
Di, 16.10. 12:40 1019 keine Meldung
Di, 16.10. 12:30 1019 + 0,6
Di, 16.10. 12:00 1019 + 0,7
Di, 16.10. 11:30 1019 + 1,0
Di, 16.10. 11:00 1019 + 1,2
Di, 16.10. 10:30 1019 + 1,3
Ortszeit Schneehöhe (cm)
Di, 16.10. 8:00 0
Di, 16.10. 2:00 0
Mo, 15.10. 20:00 0
Mo, 15.10. 14:00 0
Mo, 15.10. 8:00 0
Mo, 15.10. 2:00 0
So, 14.10. 20:00 0
So, 14.10. 14:00 0
Ortszeit Schneehöhe (cm)
Di, 16.10. 13:30 0
Di, 16.10. 13:10 0
Di, 16.10. 13:00 0
Di, 16.10. 12:50 0
Di, 16.10. 12:40 0
Di, 16.10. 12:30 0
Di, 16.10. 12:00 0
Di, 16.10. 11:30 0
Di, 16.10. 11:00 0
Di, 16.10. 10:30 0
Link zu dieser Seite / Seite empfehlen

Das Wetter in ...